KLSV

Nellis AFB Airport

Las Vegas, Nevada, USA
METAR KLSV 250458Z AUTO 15017KT 10SM CLR 29/M03 A2988 RMK AO2 SLP095 T02941030
Observed Flight Rules
May-25 @ 04:58 UTC (33 minutes ago) Visual Flight Rules
Wind Visibility Clouds
150° at 17 knots 10 miles
  • Clear skies
Temperatures Readings
Current 29°C / 84°F
Dewpoint -3°C / 27°F
Humidity 12%
Altimeter 29.88" Hg
Pressure 1009.5 hPa
Elevation 570
METAR KLSV 250458Z AUTO 15017KT 10SM CLR 29/M03 A2988 RMK AO2 SLP095 T02941030
Observed Flight Rules
May-25 @ 04:58 UTC
(33 minutes ago)
VFR
Wind Visibility
150° at 17 knots 10 miles
Clouds
  • Clear skies
Temperature Dewpoint
29°C / 84°F -3°C / 27°F
Humidity Altimeter Pressure
12% 29.88" Hg 1009.5 hPa